createdAt,value
2017-10-25T00:00:36.002Z,0
2017-10-25T00:01:36.719Z,0
2017-10-25T00:02:37.437Z,0
2017-10-25T00:03:38.103Z,0
2017-10-25T00:04:38.769Z,0
2017-10-25T00:05:39.437Z,0
2017-10-25T00:06:40.103Z,0
2017-10-25T00:07:40.770Z,0
2017-10-25T00:08:41.438Z,0
2017-10-25T00:09:42.165Z,0
2017-10-25T00:10:42.821Z,0
2017-10-25T00:11:43.487Z,0
2017-10-25T00:12:44.153Z,0
2017-10-25T00:13:44.820Z,0
2017-10-25T00:14:45.535Z,0
2017-10-25T00:15:46.203Z,0
2017-10-25T00:16:46.872Z,0
2017-10-25T00:17:47.541Z,0
2017-10-25T00:18:48.259Z,0
2017-10-25T00:19:48.926Z,0
2017-10-25T00:20:49.593Z,0
2017-10-25T00:21:50.316Z,0
2017-10-25T00:22:51.012Z,0
2017-10-25T00:23:51.680Z,0
2017-10-25T00:24:52.383Z,0
2017-10-25T00:25:53.051Z,0
2017-10-25T00:26:53.719Z,0
2017-10-25T00:27:54.435Z,0
2017-10-25T00:28:55.151Z,0
2017-10-25T00:29:55.903Z,0
2017-10-25T00:30:56.572Z,0
2017-10-25T00:31:57.241Z,0
2017-10-25T00:32:57.909Z,0
2017-10-25T00:33:58.576Z,0
2017-10-25T00:34:59.242Z,0
2017-10-25T00:35:59.907Z,0
2017-10-25T00:37:00.573Z,0
2017-10-25T00:38:01.239Z,0
2017-10-25T00:39:01.956Z,0
2017-10-25T00:40:02.624Z,0
2017-10-25T00:41:03.339Z,0
2017-10-25T00:42:04.054Z,0
2017-10-25T00:43:04.769Z,0
2017-10-25T00:44:05.437Z,0
2017-10-25T00:45:06.103Z,0
2017-10-25T00:46:06.819Z,0
2017-10-25T00:47:07.485Z,0
2017-10-25T00:48:08.152Z,0
2017-10-25T00:49:08.868Z,0
2017-10-25T00:50:09.535Z,0
2017-10-25T00:51:10.237Z,0
2017-10-25T00:52:10.904Z,0
2017-10-25T00:53:11.620Z,0
2017-10-25T00:54:12.288Z,0
2017-10-25T00:55:12.952Z,0
2017-10-25T00:56:13.616Z,0
2017-10-25T00:57:14.282Z,0
2017-10-25T00:58:14.947Z,0
2017-10-25T00:59:15.612Z,0
2017-10-25T01:00:16.280Z,0
2017-10-25T01:01:16.942Z,0
2017-10-25T01:02:17.607Z,0
2017-10-25T01:03:18.273Z,0
2017-10-25T01:04:18.939Z,0
2017-10-25T01:05:19.604Z,0
2017-10-25T01:06:20.270Z,0
2017-10-25T01:07:20.935Z,0
2017-10-25T01:08:21.601Z,0
2017-10-25T01:09:22.266Z,0
2017-10-25T01:10:22.953Z,0
2017-10-25T01:11:23.599Z,0
2017-10-25T01:12:24.263Z,0
2017-10-25T01:13:24.927Z,0
2017-10-25T01:14:25.593Z,0
2017-10-25T01:15:26.259Z,0
2017-10-25T01:16:26.923Z,0
2017-10-25T01:17:27.589Z,0
2017-10-25T01:18:28.255Z,0
2017-10-25T01:19:28.920Z,0
2017-10-25T01:20:29.587Z,0
2017-10-25T01:21:30.251Z,0
2017-10-25T01:22:30.916Z,0
2017-10-25T01:23:31.582Z,0
2017-10-25T01:24:32.248Z,0
2017-10-25T01:25:32.912Z,0
2017-10-25T01:26:33.580Z,0
2017-10-25T01:27:34.246Z,0
2017-10-25T01:28:34.910Z,0
2017-10-25T01:29:35.612Z,0
2017-10-25T01:30:36.329Z,0
2017-10-25T01:31:36.994Z,0
2017-10-25T01:32:37.659Z,0
2017-10-25T01:33:38.331Z,0
2017-10-25T01:34:38.988Z,0
2017-10-25T01:35:39.654Z,0
2017-10-25T01:36:40.320Z,0
2017-10-25T01:37:40.991Z,0
2017-10-25T01:38:41.650Z,0
2017-10-25T01:39:42.316Z,0
2017-10-25T01:40:42.980Z,0
2017-10-25T01:41:43.644Z,0
2017-10-25T01:42:44.311Z,0
2017-10-25T01:43:44.976Z,0
2017-10-25T01:44:45.641Z,0
2017-10-25T01:45:46.307Z,0
2017-10-25T01:46:46.972Z,0
2017-10-25T01:47:47.638Z,0
2017-10-25T01:48:48.303Z,0
2017-10-25T01:49:48.983Z,0
2017-10-25T01:50:49.635Z,0
2017-10-25T01:51:50.300Z,0
2017-10-25T01:52:50.966Z,0
2017-10-25T01:53:51.630Z,0
2017-10-25T01:54:52.298Z,0
2017-10-25T01:55:53.013Z,0
2017-10-25T01:56:53.729Z,0
2017-10-25T01:57:54.395Z,0
2017-10-25T01:58:55.070Z,0
2017-10-25T01:59:55.732Z,0
2017-10-25T02:00:56.398Z,0
2017-10-25T02:01:57.114Z,0
2017-10-25T02:02:57.780Z,0
2017-10-25T02:03:58.446Z,0
2017-10-25T02:04:59.112Z,0
2017-10-25T02:05:59.784Z,0
2017-10-25T02:07:00.443Z,0
2017-10-25T02:08:01.160Z,0
2017-10-25T02:09:01.828Z,0
2017-10-25T02:10:02.492Z,0
2017-10-25T02:11:03.158Z,0
2017-10-25T02:12:03.830Z,0
2017-10-25T02:13:04.539Z,0
2017-10-25T02:14:05.207Z,0
2017-10-25T02:15:05.868Z,0
2017-10-25T02:16:06.534Z,0
2017-10-25T02:17:07.199Z,0
2017-10-25T02:18:07.918Z,0
2017-10-25T02:19:08.581Z,0
2017-10-25T02:20:09.299Z,0
2017-10-25T02:21:10.000Z,0
2017-10-25T02:22:10.667Z,0
2017-10-25T02:23:11.333Z,0
2017-10-25T02:24:11.998Z,0
2017-10-25T02:25:12.662Z,0
2017-10-25T02:26:13.328Z,0
2017-10-25T02:27:14.032Z,0
2017-10-25T02:28:14.733Z,0
2017-10-25T02:29:15.401Z,0
2017-10-25T02:30:16.067Z,0
2017-10-25T02:31:16.735Z,0
2017-10-25T02:32:17.403Z,0
2017-10-25T02:33:18.069Z,0
2017-10-25T02:34:18.733Z,0
2017-10-25T02:35:19.401Z,0
2017-10-25T02:36:20.065Z,0
2017-10-25T02:37:20.730Z,0
2017-10-25T02:38:21.395Z,0
2017-10-25T02:39:22.060Z,0
2017-10-25T02:40:22.725Z,0
2017-10-25T02:41:23.391Z,0
2017-10-25T02:42:24.057Z,0
2017-10-25T02:43:24.772Z,0
2017-10-25T02:44:25.439Z,0
2017-10-25T02:45:26.103Z,0
2017-10-25T02:46:26.821Z,0
2017-10-25T02:47:27.486Z,0
2017-10-25T02:48:28.152Z,0
2017-10-25T02:49:28.817Z,0
2017-10-25T02:50:29.481Z,0
2017-10-25T02:51:30.196Z,0
2017-10-25T02:52:30.861Z,0
2017-10-25T02:53:31.578Z,0
2017-10-25T02:54:32.245Z,0
2017-10-25T02:55:32.918Z,0
2017-10-25T02:56:33.580Z,0
2017-10-25T02:57:34.245Z,0
2017-10-25T02:58:34.912Z,0
2017-10-25T02:59:35.580Z,0
2017-10-25T03:00:36.247Z,0
2017-10-25T03:01:36.911Z,0
2017-10-25T03:02:37.576Z,0
2017-10-25T03:03:38.241Z,0
2017-10-25T03:04:38.957Z,0
2017-10-25T03:05:39.674Z,0
2017-10-25T03:06:40.391Z,0
2017-10-25T03:07:41.055Z,0
2017-10-25T03:08:41.721Z,0
2017-10-25T03:09:42.385Z,0
2017-10-25T03:10:43.051Z,0
2017-10-25T03:11:43.719Z,0
2017-10-25T03:12:44.383Z,0
2017-10-25T03:13:45.050Z,0
2017-10-25T03:14:45.714Z,0
2017-10-25T03:15:46.380Z,0
2017-10-25T03:16:47.047Z,0
2017-10-25T03:17:47.711Z,0
2017-10-25T03:18:48.377Z,0
2017-10-25T03:19:49.043Z,0
2017-10-25T03:20:49.707Z,0
2017-10-25T03:21:50.424Z,0
2017-10-25T03:22:51.145Z,0
2017-10-25T03:23:51.858Z,0
2017-10-25T03:24:52.523Z,0
2017-10-25T03:25:53.189Z,0
2017-10-25T03:26:53.856Z,0
2017-10-25T03:27:54.571Z,0
2017-10-25T03:28:55.236Z,0
2017-10-25T03:29:55.903Z,0
2017-10-25T03:30:56.654Z,0
2017-10-25T03:31:57.319Z,0
2017-10-25T03:32:57.984Z,0
2017-10-25T03:33:58.652Z,0
2017-10-25T03:34:59.316Z,0
2017-10-25T03:35:59.982Z,0
2017-10-25T03:37:00.647Z,0
2017-10-25T03:38:01.313Z,0
2017-10-25T03:39:01.979Z,0
2017-10-25T03:40:02.644Z,0
2017-10-25T03:41:03.311Z,0
2017-10-25T03:42:03.980Z,0
2017-10-25T03:43:04.677Z,0
2017-10-25T03:44:05.344Z,0
2017-10-25T03:45:06.011Z,0
2017-10-25T03:46:06.678Z,0
2017-10-25T03:47:07.344Z,0
2017-10-25T03:48:08.009Z,0
2017-10-25T03:49:08.675Z,0
2017-10-25T03:50:09.340Z,0
2017-10-25T03:51:10.006Z,0
2017-10-25T03:52:10.672Z,0
2017-10-25T03:53:11.338Z,0
2017-10-25T03:54:12.002Z,0
2017-10-25T03:55:12.668Z,0
2017-10-25T03:56:13.333Z,0
2017-10-25T03:57:14.053Z,0
2017-10-25T03:58:14.717Z,0
2017-10-25T03:59:15.415Z,0
2017-10-25T04:00:16.083Z,0
2017-10-25T04:01:16.746Z,0
2017-10-25T04:02:17.413Z,0
2017-10-25T04:03:18.077Z,0
2017-10-25T04:04:18.743Z,0
2017-10-25T04:05:19.409Z,0
2017-10-25T04:06:20.075Z,0
2017-10-25T04:07:20.740Z,0
2017-10-25T04:08:21.405Z,0
2017-10-25T04:09:22.075Z,0
2017-10-25T04:10:22.736Z,0
2017-10-25T04:11:23.405Z,0
2017-10-25T04:12:24.069Z,0
2017-10-25T04:13:24.735Z,0
2017-10-25T04:14:25.400Z,0
2017-10-25T04:15:26.067Z,0
2017-10-25T04:16:26.732Z,0
2017-10-25T04:17:27.399Z,0
2017-10-25T04:18:28.065Z,0
2017-10-25T04:19:28.729Z,0
2017-10-25T04:20:29.396Z,0
2017-10-25T04:21:30.060Z,0
2017-10-25T04:22:30.776Z,0
2017-10-25T04:23:31.492Z,0
2017-10-25T04:24:32.159Z,0
2017-10-25T04:25:32.914Z,0
2017-10-25T04:26:33.631Z,0
2017-10-25T04:27:34.348Z,0
2017-10-25T04:28:35.099Z,0
2017-10-25T04:29:35.767Z,0
2017-10-25T04:30:36.482Z,0
2017-10-25T04:31:37.147Z,0
2017-10-25T04:32:37.813Z,0
2017-10-25T04:33:38.477Z,0
2017-10-25T04:34:39.143Z,0
2017-10-25T04:35:39.808Z,0
2017-10-25T04:36:40.475Z,0
2017-10-25T04:37:41.140Z,0
2017-10-25T04:38:41.806Z,0
2017-10-25T04:39:42.470Z,0
2017-10-25T04:40:43.136Z,0
2017-10-25T04:41:43.802Z,0
2017-10-25T04:42:44.467Z,0
2017-10-25T04:43:45.132Z,0
2017-10-25T04:44:45.798Z,0
2017-10-25T04:45:46.463Z,0
2017-10-25T04:46:47.179Z,0
2017-10-25T04:47:47.845Z,0
2017-10-25T04:48:48.511Z,0
2017-10-25T04:49:49.226Z,0
2017-10-25T04:50:49.944Z,0
2017-10-25T04:51:50.660Z,0
2017-10-25T04:52:51.327Z,0
2017-10-25T04:53:51.993Z,0
2017-10-25T04:54:52.665Z,0
2017-10-25T04:55:53.410Z,0
2017-10-25T04:56:54.076Z,0
2017-10-25T04:57:54.741Z,0
2017-10-25T04:58:55.409Z,0
2017-10-25T04:59:56.074Z,0
2017-10-25T05:00:56.742Z,0
2017-10-25T05:01:57.459Z,0
2017-10-25T05:02:58.181Z,0
2017-10-25T05:03:58.876Z,0
2017-10-25T05:04:59.542Z,0
2017-10-25T05:06:00.259Z,0
2017-10-25T05:07:00.964Z,0
2017-10-25T05:08:01.629Z,0
2017-10-25T05:09:02.295Z,0
2017-10-25T05:10:02.960Z,0
2017-10-25T05:11:03.625Z,0
2017-10-25T05:12:04.289Z,0
2017-10-25T05:13:05.006Z,0
2017-10-25T05:14:05.672Z,0
2017-10-25T05:15:06.392Z,0
2017-10-25T05:16:07.064Z,0
2017-10-25T05:17:07.728Z,0
2017-10-25T05:18:08.440Z,0
2017-10-25T05:19:09.107Z,0
2017-10-25T05:20:09.771Z,0
2017-10-25T05:21:10.436Z,0
2017-10-25T05:22:11.139Z,0
2017-10-25T05:23:11.805Z,0
2017-10-25T05:24:12.471Z,0
2017-10-25T05:25:13.137Z,0
2017-10-25T05:26:13.804Z,0
2017-10-25T05:27:14.472Z,0
2017-10-25T05:28:15.136Z,0
2017-10-25T05:29:15.802Z,0
2017-10-25T05:30:16.516Z,0
2017-10-25T05:31:17.231Z,0
2017-10-25T05:32:17.899Z,0
2017-10-25T05:33:18.566Z,0
2017-10-25T05:34:19.282Z,0
2017-10-25T05:35:19.949Z,0
2017-10-25T05:36:20.613Z,0
2017-10-25T05:37:21.280Z,0
2017-10-25T05:38:21.944Z,0
2017-10-25T05:39:22.609Z,0
2017-10-25T05:40:23.275Z,0
2017-10-25T05:41:23.941Z,0
2017-10-25T05:42:24.606Z,0
2017-10-25T05:43:25.273Z,0
2017-10-25T05:44:25.940Z,0
2017-10-25T05:45:26.656Z,0
2017-10-25T05:46:27.324Z,0
2017-10-25T05:47:27.992Z,0
2017-10-25T05:48:28.660Z,0
2017-10-25T05:49:29.325Z,0
2017-10-25T05:50:29.993Z,0
2017-10-25T05:51:30.709Z,0
2017-10-25T05:52:31.392Z,0
2017-10-25T05:53:32.044Z,0
2017-10-25T05:54:32.712Z,0
2017-10-25T05:55:33.380Z,0
2017-10-25T05:56:34.049Z,0
2017-10-25T05:57:34.767Z,0
2017-10-25T05:58:35.435Z,0
2017-10-25T05:59:36.104Z,0
2017-10-25T06:00:36.856Z,5
2017-10-25T06:01:37.524Z,5
2017-10-25T06:02:38.242Z,5
2017-10-25T06:03:38.910Z,5
2017-10-25T06:04:39.579Z,5
2017-10-25T06:05:40.253Z,5
2017-10-25T06:06:40.969Z,5
2017-10-25T06:07:41.638Z,5
2017-10-25T06:08:42.307Z,5
2017-10-25T06:09:43.015Z,5
2017-10-25T06:10:43.681Z,11
2017-10-25T06:11:44.352Z,11
2017-10-25T06:12:45.021Z,11
2017-10-25T06:13:45.691Z,11
2017-10-25T06:14:46.359Z,11
2017-10-25T06:15:47.028Z,11
2017-10-25T06:16:47.708Z,11
2017-10-25T06:17:48.414Z,11
2017-10-25T06:18:49.081Z,11
2017-10-25T06:19:49.795Z,16
2017-10-25T06:20:50.499Z,16
2017-10-25T06:21:51.168Z,16
2017-10-25T06:22:51.837Z,16
2017-10-25T06:23:52.508Z,16
2017-10-25T06:24:53.181Z,22
2017-10-25T06:25:53.882Z,22
2017-10-25T06:26:54.550Z,28
2017-10-25T06:27:55.255Z,28
2017-10-25T06:28:55.925Z,28
2017-10-25T06:29:56.593Z,28
2017-10-25T06:30:57.262Z,22
2017-10-25T06:31:57.930Z,22
2017-10-25T06:32:58.649Z,28
2017-10-25T06:33:59.373Z,28
2017-10-25T06:35:00.074Z,28
2017-10-25T06:36:00.742Z,28
2017-10-25T06:37:01.414Z,22
2017-10-25T06:38:02.085Z,22
2017-10-25T06:39:02.753Z,22
2017-10-25T06:40:03.422Z,22
2017-10-25T06:41:04.090Z,22
2017-10-25T06:42:04.758Z,22
2017-10-25T06:43:05.479Z,22
2017-10-25T06:44:06.148Z,22
2017-10-25T06:45:06.817Z,22
2017-10-25T06:46:07.485Z,22
2017-10-25T06:47:08.155Z,22
2017-10-25T06:48:08.830Z,28
2017-10-25T06:49:09.495Z,28
2017-10-25T06:50:10.164Z,33
2017-10-25T06:51:10.883Z,33
2017-10-25T06:52:11.555Z,33
2017-10-25T06:53:12.277Z,33
2017-10-25T06:54:12.946Z,33
2017-10-25T06:55:13.615Z,33
2017-10-25T06:56:14.284Z,39
2017-10-25T06:57:14.953Z,39
2017-10-25T06:58:15.621Z,39
2017-10-25T06:59:16.290Z,45
2017-10-25T07:00:16.960Z,39
2017-10-25T07:01:17.637Z,39
2017-10-25T07:02:18.302Z,33
2017-10-25T07:03:19.021Z,33
2017-10-25T07:04:19.690Z,39
2017-10-25T07:05:20.360Z,50
2017-10-25T07:06:21.064Z,56
2017-10-25T07:07:21.735Z,56
2017-10-25T07:08:22.456Z,61
2017-10-25T07:09:23.177Z,67
2017-10-25T07:10:23.849Z,67
2017-10-25T07:11:24.520Z,61
2017-10-25T07:12:25.191Z,56
2017-10-25T07:13:25.860Z,56
2017-10-25T07:14:26.531Z,56
2017-10-25T07:15:27.201Z,56
2017-10-25T07:16:27.872Z,56
2017-10-25T07:17:28.543Z,56
2017-10-25T07:18:29.264Z,61
2017-10-25T07:19:30.021Z,73
2017-10-25T07:20:30.692Z,73
2017-10-25T07:21:31.367Z,73
2017-10-25T07:22:32.033Z,67
2017-10-25T07:23:32.705Z,56
2017-10-25T07:24:33.376Z,56
2017-10-25T07:25:34.046Z,56
2017-10-25T07:26:34.766Z,56
2017-10-25T07:27:35.436Z,50
2017-10-25T07:28:36.107Z,45
2017-10-25T07:29:36.826Z,45
2017-10-25T07:30:37.498Z,50
2017-10-25T07:31:38.169Z,56
2017-10-25T07:32:38.840Z,56
2017-10-25T07:33:39.510Z,50
2017-10-25T07:34:40.230Z,56
2017-10-25T07:35:40.900Z,61
2017-10-25T07:36:41.619Z,61
2017-10-25T07:37:42.294Z,61
2017-10-25T07:38:43.015Z,61
2017-10-25T07:39:43.687Z,73
2017-10-25T07:40:44.409Z,84
2017-10-25T07:41:45.130Z,84
2017-10-25T07:42:45.801Z,78
2017-10-25T07:43:46.472Z,84
2017-10-25T07:44:47.144Z,84
2017-10-25T07:45:47.817Z,78
2017-10-25T07:46:48.488Z,78
2017-10-25T07:47:49.159Z,84
2017-10-25T07:48:49.829Z,78
2017-10-25T07:49:50.505Z,73
2017-10-25T07:50:51.175Z,73
2017-10-25T07:51:51.845Z,90
2017-10-25T07:52:52.517Z,101
2017-10-25T07:53:53.240Z,118
2017-10-25T07:54:53.962Z,140
2017-10-25T07:55:54.634Z,157
2017-10-25T07:56:55.309Z,151
2017-10-25T07:57:56.029Z,163
2017-10-25T07:58:56.701Z,196
2017-10-25T07:59:57.372Z,174
2017-10-25T08:00:58.045Z,146
2017-10-25T08:01:58.717Z,135
2017-10-25T08:02:59.389Z,151
2017-10-25T08:04:00.063Z,185
2017-10-25T08:05:00.735Z,185
2017-10-25T08:06:01.458Z,174
2017-10-25T08:07:02.131Z,202
2017-10-25T08:08:02.840Z,241
2017-10-25T08:09:03.520Z,241
2017-10-25T08:10:04.233Z,247
2017-10-25T08:11:04.906Z,286
2017-10-25T08:12:05.578Z,264
2017-10-25T08:13:06.250Z,230
2017-10-25T08:14:06.924Z,219
2017-10-25T08:15:07.597Z,225
2017-10-25T08:16:08.270Z,208
2017-10-25T08:17:08.992Z,185
2017-10-25T08:18:09.666Z,191
2017-10-25T08:19:10.339Z,213
2017-10-25T08:20:11.012Z,213
2017-10-25T08:21:11.686Z,180
2017-10-25T08:22:12.408Z,174
2017-10-25T08:23:13.081Z,202
2017-10-25T08:24:13.755Z,225
2017-10-25T08:25:14.427Z,253
2017-10-25T08:26:15.102Z,236
2017-10-25T08:27:15.825Z,208
2017-10-25T08:28:16.549Z,213
2017-10-25T08:29:17.221Z,191
2017-10-25T08:30:17.894Z,202
2017-10-25T08:31:18.569Z,202
2017-10-25T08:32:19.242Z,230
2017-10-25T08:33:19.915Z,202
2017-10-25T08:34:20.589Z,191
2017-10-25T08:35:21.349Z,219
2017-10-25T08:36:22.023Z,253
2017-10-25T08:37:22.697Z,236
2017-10-25T08:38:23.371Z,225
2017-10-25T08:39:24.045Z,230
2017-10-25T08:40:24.719Z,219
2017-10-25T08:41:25.395Z,253
2017-10-25T08:42:26.066Z,230
2017-10-25T08:43:26.739Z,196
2017-10-25T08:44:27.463Z,157
2017-10-25T08:45:28.137Z,180
2017-10-25T08:46:28.815Z,208
2017-10-25T08:47:29.536Z,202
2017-10-25T08:48:30.251Z,225
2017-10-25T08:49:30.919Z,225
2017-10-25T08:50:31.594Z,230
2017-10-25T08:51:32.269Z,247
2017-10-25T08:52:32.943Z,230
2017-10-25T08:53:33.618Z,213
2017-10-25T08:54:34.292Z,202
2017-10-25T08:55:35.016Z,185
2017-10-25T08:56:35.740Z,180
2017-10-25T08:57:36.464Z,180
2017-10-25T08:58:37.138Z,185
2017-10-25T08:59:37.813Z,191
2017-10-25T09:00:38.486Z,191
2017-10-25T09:01:39.161Z,213
2017-10-25T09:02:39.837Z,225
2017-10-25T09:03:40.510Z,213
2017-10-25T09:04:41.184Z,191
2017-10-25T09:05:41.911Z,174
2017-10-25T09:06:42.617Z,157
2017-10-25T09:07:43.341Z,157
2017-10-25T09:08:44.016Z,157
2017-10-25T09:09:44.688Z,135
2017-10-25T09:10:45.363Z,135
2017-10-25T09:11:46.038Z,129
2017-10-25T09:12:46.711Z,135
2017-10-25T09:13:47.386Z,140
2017-10-25T09:14:48.061Z,146
2017-10-25T09:15:48.736Z,151
2017-10-25T09:16:49.412Z,151
2017-10-25T09:17:50.083Z,151
2017-10-25T09:18:50.756Z,174
2017-10-25T09:19:51.430Z,196
2017-10-25T09:20:52.153Z,230
2017-10-25T09:21:52.826Z,258
2017-10-25T09:22:53.499Z,309
2017-10-25T09:23:54.172Z,315
2017-10-25T09:24:54.847Z,286
2017-10-25T09:25:55.521Z,292
2017-10-25T09:26:56.194Z,331
2017-10-25T09:27:56.869Z,360
2017-10-25T09:28:57.543Z,337
2017-10-25T09:29:58.216Z,298
2017-10-25T09:30:58.889Z,286
2017-10-25T09:31:59.614Z,303
2017-10-25T09:33:00.341Z,286
2017-10-25T09:34:01.011Z,292
2017-10-25T09:35:01.685Z,320
2017-10-25T09:36:02.364Z,337
2017-10-25T09:37:03.034Z,354
2017-10-25T09:38:03.708Z,354
2017-10-25T09:39:04.381Z,376
2017-10-25T09:40:05.057Z,382
2017-10-25T09:41:05.732Z,393
2017-10-25T09:42:06.405Z,393
2017-10-25T09:43:07.079Z,388
2017-10-25T09:44:07.753Z,382
2017-10-25T09:45:08.427Z,382
2017-10-25T09:46:09.101Z,376
2017-10-25T09:47:09.777Z,376
2017-10-25T09:48:10.453Z,376
2017-10-25T09:49:11.126Z,376
2017-10-25T09:50:11.801Z,376
2017-10-25T09:51:12.475Z,376
2017-10-25T09:52:13.149Z,376
2017-10-25T09:53:13.821Z,376
2017-10-25T09:54:14.549Z,376
2017-10-25T09:55:15.271Z,371
2017-10-25T09:56:15.946Z,376
2017-10-25T09:57:16.672Z,371
2017-10-25T09:58:17.346Z,371
2017-10-25T09:59:18.023Z,371
2017-10-25T10:00:18.697Z,365
2017-10-25T10:01:19.423Z,360
2017-10-25T10:02:20.147Z,348
2017-10-25T10:03:20.822Z,343
2017-10-25T10:04:21.497Z,331
2017-10-25T10:05:22.172Z,320
2017-10-25T10:06:22.848Z,315
2017-10-25T10:07:23.571Z,309
2017-10-25T10:08:24.297Z,309
2017-10-25T10:09:25.023Z,309
2017-10-25T10:10:25.697Z,309
2017-10-25T10:11:26.372Z,309
2017-10-25T10:12:27.048Z,315
2017-10-25T10:13:27.722Z,315
2017-10-25T10:14:28.396Z,309
2017-10-25T10:15:29.071Z,315
2017-10-25T10:16:29.746Z,315
2017-10-25T10:17:30.421Z,326
2017-10-25T10:18:31.094Z,331
2017-10-25T10:19:31.771Z,331
2017-10-25T10:20:32.449Z,337
2017-10-25T10:21:33.118Z,337
2017-10-25T10:22:33.794Z,337
2017-10-25T10:23:34.470Z,331
2017-10-25T10:24:35.144Z,326
2017-10-25T10:25:35.817Z,326
2017-10-25T10:26:36.493Z,326
2017-10-25T10:27:37.219Z,326
2017-10-25T10:28:37.893Z,320
2017-10-25T10:29:38.567Z,309
2017-10-25T10:30:39.243Z,303
2017-10-25T10:31:39.918Z,286
2017-10-25T10:32:40.594Z,275
2017-10-25T10:33:41.268Z,275
2017-10-25T10:34:41.992Z,264
2017-10-25T10:35:42.665Z,264
2017-10-25T10:36:43.340Z,258
2017-10-25T10:37:44.099Z,264
2017-10-25T10:38:44.774Z,258
2017-10-25T10:39:45.448Z,258
2017-10-25T10:40:46.122Z,253
2017-10-25T10:41:46.796Z,247
2017-10-25T10:42:47.470Z,247
2017-10-25T10:43:48.143Z,241
2017-10-25T10:44:48.866Z,247
2017-10-25T10:45:49.540Z,253
2017-10-25T10:46:50.214Z,253
2017-10-25T10:47:50.887Z,253
2017-10-25T10:48:51.614Z,258
2017-10-25T10:49:52.285Z,253
2017-10-25T10:50:52.961Z,253
2017-10-25T10:51:53.634Z,258
2017-10-25T10:52:54.308Z,264
2017-10-25T10:53:54.982Z,270
2017-10-25T10:54:55.708Z,275
2017-10-25T10:55:56.385Z,281
2017-10-25T10:56:57.092Z,292
2017-10-25T10:57:57.819Z,298
2017-10-25T10:58:58.477Z,298
2017-10-25T10:59:59.153Z,298
2017-10-25T11:00:59.874Z,292
2017-10-25T11:02:00.549Z,292
2017-10-25T11:03:01.256Z,286
2017-10-25T11:04:01.931Z,281
2017-10-25T11:05:02.606Z,258
2017-10-25T11:06:03.281Z,258
2017-10-25T11:07:04.005Z,253
2017-10-25T11:08:04.713Z,253
2017-10-25T11:09:05.437Z,258
2017-10-25T11:10:06.112Z,258
2017-10-25T11:11:06.784Z,264
2017-10-25T11:12:07.462Z,281
2017-10-25T11:13:08.191Z,292
2017-10-25T11:14:08.858Z,309
2017-10-25T11:15:09.533Z,315
2017-10-25T11:16:10.202Z,315
2017-10-25T11:17:10.926Z,303
2017-10-25T11:18:11.636Z,258
2017-10-25T11:19:12.310Z,247
2017-10-25T11:20:13.024Z,236
2017-10-25T11:21:13.743Z,225
2017-10-25T11:22:14.468Z,225
2017-10-25T11:23:15.142Z,225
2017-10-25T11:24:15.817Z,213
2017-10-25T11:25:16.490Z,208
2017-10-25T11:26:17.212Z,213
2017-10-25T11:27:17.887Z,213
2017-10-25T11:28:18.560Z,202
2017-10-25T11:29:19.233Z,196
2017-10-25T11:30:19.908Z,213
2017-10-25T11:31:20.670Z,225
2017-10-25T11:32:21.344Z,225
2017-10-25T11:33:22.018Z,219
2017-10-25T11:34:22.690Z,219
2017-10-25T11:35:23.364Z,230
2017-10-25T11:36:24.039Z,247
2017-10-25T11:37:24.771Z,258
2017-10-25T11:38:25.439Z,258
2017-10-25T11:39:26.116Z,281
2017-10-25T11:40:26.824Z,275
2017-10-25T11:41:27.498Z,208
2017-10-25T11:42:28.172Z,241
2017-10-25T11:43:28.846Z,264
2017-10-25T11:44:29.557Z,275
2017-10-25T11:45:30.233Z,247
2017-10-25T11:46:30.942Z,236
2017-10-25T11:47:31.703Z,253
2017-10-25T11:48:32.377Z,230
2017-10-25T11:49:33.087Z,208
2017-10-25T11:50:33.811Z,208
2017-10-25T11:51:34.534Z,208
2017-10-25T11:52:35.214Z,202
2017-10-25T11:53:35.886Z,208
2017-10-25T11:54:36.560Z,208
2017-10-25T11:55:37.234Z,202
2017-10-25T11:56:37.912Z,208
2017-10-25T11:57:38.582Z,219
2017-10-25T11:58:39.345Z,196
2017-10-25T11:59:40.018Z,191
2017-10-25T12:00:40.727Z,208
2017-10-25T12:01:41.401Z,208
2017-10-25T12:02:42.094Z,208
2017-10-25T12:03:42.750Z,208
2017-10-25T12:04:43.422Z,213
2017-10-25T12:05:44.097Z,208
2017-10-25T12:06:44.772Z,213
2017-10-25T12:07:45.446Z,225
2017-10-25T12:08:46.121Z,202
2017-10-25T12:09:46.796Z,213
2017-10-25T12:10:47.468Z,191
2017-10-25T12:11:48.142Z,202
2017-10-25T12:12:49.200Z,208
2017-10-25T12:13:49.877Z,202
2017-10-25T12:14:50.555Z,213
2017-10-25T12:15:51.225Z,202
2017-10-25T12:16:51.949Z,253
2017-10-25T12:17:52.623Z,202
2017-10-25T12:18:53.334Z,286
2017-10-25T12:19:54.059Z,264
2017-10-25T12:20:54.785Z,230
2017-10-25T12:21:55.458Z,185
2017-10-25T12:22:56.183Z,208
2017-10-25T12:23:56.856Z,225
2017-10-25T12:24:57.535Z,264
2017-10-25T12:25:58.205Z,281
2017-10-25T12:26:58.880Z,225
2017-10-25T12:27:59.603Z,236
2017-10-25T12:29:00.328Z,286
2017-10-25T12:30:01.002Z,303
2017-10-25T12:31:01.676Z,270
2017-10-25T12:32:02.400Z,230
2017-10-25T12:33:03.072Z,236
2017-10-25T12:34:03.748Z,168
2017-10-25T12:35:04.422Z,163
2017-10-25T12:36:05.095Z,208
2017-10-25T12:37:05.821Z,241
2017-10-25T12:38:06.494Z,236
2017-10-25T12:39:07.170Z,213
2017-10-25T12:40:07.847Z,264
2017-10-25T12:41:08.520Z,185
2017-10-25T12:42:09.245Z,225
2017-10-25T12:43:09.918Z,219
2017-10-25T12:44:10.596Z,236
2017-10-25T12:45:11.306Z,258
2017-10-25T12:46:11.982Z,202
2017-10-25T12:47:12.655Z,208
2017-10-25T12:48:13.380Z,208
2017-10-25T12:49:14.054Z,213
2017-10-25T12:50:14.727Z,213
2017-10-25T12:51:15.402Z,208
2017-10-25T12:52:16.076Z,208
2017-10-25T12:53:16.751Z,208
2017-10-25T12:54:17.426Z,219
2017-10-25T12:55:18.151Z,230
2017-10-25T12:56:18.862Z,241
2017-10-25T12:57:19.536Z,236
2017-10-25T12:58:20.262Z,219
2017-10-25T12:59:20.937Z,219
2017-10-25T13:00:21.612Z,202
2017-10-25T13:01:22.286Z,219
2017-10-25T13:02:22.960Z,309
2017-10-25T13:03:23.635Z,337
2017-10-25T13:04:24.310Z,331
2017-10-25T13:05:24.986Z,236
2017-10-25T13:06:25.710Z,275
2017-10-25T13:07:26.384Z,286
2017-10-25T13:08:27.109Z,292
2017-10-25T13:09:27.784Z,270
2017-10-25T13:10:28.459Z,247
2017-10-25T13:11:29.135Z,258
2017-10-25T13:12:29.809Z,275
2017-10-25T13:13:30.535Z,309
2017-10-25T13:14:31.260Z,236
2017-10-25T13:15:31.986Z,264
2017-10-25T13:16:32.659Z,258
2017-10-25T13:17:33.333Z,247
2017-10-25T13:18:34.009Z,191
2017-10-25T13:19:34.685Z,225
2017-10-25T13:20:35.410Z,191
2017-10-25T13:21:36.084Z,180
2017-10-25T13:22:36.758Z,196
2017-10-25T13:23:37.483Z,326
2017-10-25T13:24:38.158Z,360
2017-10-25T13:25:38.831Z,174
2017-10-25T13:26:39.559Z,168
2017-10-25T13:27:40.232Z,421
2017-10-25T13:28:40.906Z,185
2017-10-25T13:29:41.582Z,202
2017-10-25T13:30:42.256Z,202
2017-10-25T13:31:42.968Z,225
2017-10-25T13:32:43.642Z,151
2017-10-25T13:33:44.316Z,196
2017-10-25T13:34:45.041Z,208
2017-10-25T13:35:45.717Z,196
2017-10-25T13:36:46.393Z,180
2017-10-25T13:37:47.068Z,163
2017-10-25T13:38:47.741Z,208
2017-10-25T13:39:48.415Z,202
2017-10-25T13:40:49.093Z,135
2017-10-25T13:41:49.770Z,157
2017-10-25T13:42:50.440Z,118
2017-10-25T13:43:51.115Z,135
2017-10-25T13:44:51.827Z,135
2017-10-25T13:45:52.502Z,163
2017-10-25T13:46:53.178Z,146
2017-10-25T13:47:53.936Z,151
2017-10-25T13:48:54.661Z,157
2017-10-25T13:49:55.337Z,196
2017-10-25T13:50:56.040Z,208
2017-10-25T13:51:56.726Z,196
2017-10-25T13:52:57.401Z,208
2017-10-25T13:53:58.075Z,196
2017-10-25T13:54:58.748Z,202
2017-10-25T13:55:59.422Z,208
2017-10-25T13:57:00.132Z,196
2017-10-25T13:58:00.807Z,163
2017-10-25T13:59:01.483Z,180
2017-10-25T14:00:02.159Z,163
2017-10-25T14:01:02.831Z,174
2017-10-25T14:02:03.506Z,180
2017-10-25T14:03:04.182Z,196
2017-10-25T14:04:04.862Z,180
2017-10-25T14:05:05.565Z,174
2017-10-25T14:06:06.239Z,185
2017-10-25T14:07:06.916Z,191
2017-10-25T14:08:07.589Z,202
2017-10-25T14:09:08.262Z,163
2017-10-25T14:10:08.936Z,146
2017-10-25T14:11:09.611Z,174
2017-10-25T14:12:10.285Z,174
2017-10-25T14:13:10.958Z,174
2017-10-25T14:14:11.682Z,180
2017-10-25T14:15:12.356Z,180
2017-10-25T14:16:13.031Z,180
2017-10-25T14:17:13.705Z,140
2017-10-25T14:18:14.384Z,168
2017-10-25T14:19:15.052Z,168
2017-10-25T14:20:15.725Z,151
2017-10-25T14:21:16.452Z,135
2017-10-25T14:22:17.125Z,129
2017-10-25T14:23:17.800Z,135
2017-10-25T14:24:18.475Z,129